Weather History for Alva, OK

Change the Weather History Date:

Friday, December 28, 2012

  Actual Average Record
Temperature  
Mean Temperature 23 °F -  
Max Temperature 32 °F 46 °F 68 °F (1955)
Min Temperature 14 °F 26 °F 9 °F (1950)
Degree Days  
Heating Degree Days 42    
Moisture  
Dew Point 12 °F    
Average Humidity 60    
Maximum Humidity 74    
Minimum Humidity 38    
Precipitation  
Precipitation 0.00 in - - ()
Sea Level Pressure  
Sea Level Pressure 30.07 in    
Wind  
Wind Speed 13 mph (NNW)    
Max Wind Speed 20 mph    
Max Gust Speed 25 mph    
Visibility 10 miles    
Events      
Averages and records for this station are not official NWS values.
T = Trace of Precipitation, MM = Missing Value Source: NWS Daily Summary

Daily Weather History Graph

Daily Weather History Graph

Search for Another Location

Airport:

Trip Planner

Search our weather history database for the weather conditions in past years. The results will help you decide how hot, cold, wet, or windy it might be!

Date:

Astronomy

Dec. 28, 2012 Rise Set
Actual Time 7:46 AM CST 5:26 PM CST
Civil Twilight 7:17 AM CST 5:55 PM CST
Nautical Twilight 6:45 AM CST 6:27 PM CST
Astronomical Twilight 6:13 AM CST 6:59 PM CST
Moon 6:03 PM CST (12/28) 7:43 AM CST (12/28)
Length of Visible Light 10h 37m
Length of Day
9h 40m
Full, 100% of the Moon is Illuminated
Dec 28
Full
Jan 4
Last Quarter
Jan 11
New
Jan 18
First Quarter
Jan 26
Full

Hourly Weather History & Observations

Time (CST) Temp. Windchill Dew Point Humidity Pressure Visibility Wind Dir Wind Speed Gust Speed Precip Events Conditions
12:15 AM 26.6 °F 15.7 °F 19.4 °F 74% 29.98 in 10.0 mi North 12.7 mph - N/A   Overcast
12:35 AM 26.6 °F 16.2 °F 19.4 °F 74% 29.98 in 10.0 mi NNW 11.5 mph - N/A   Overcast
12:55 AM 26.6 °F 14.3 °F 19.4 °F 74% 29.97 in 10.0 mi NNW 16.1 mph - N/A   Overcast
1:15 AM 26.6 °F 14.7 °F 19.4 °F 74% 29.97 in 10.0 mi North 15.0 mph 21.9 mph N/A   Overcast
1:35 AM 26.6 °F 14.7 °F 19.4 °F 74% 29.98 in 9.0 mi North 15.0 mph - N/A   Overcast
1:55 AM 26.6 °F 14.7 °F 17.6 °F 69% 29.98 in 10.0 mi NNW 15.0 mph - N/A   Overcast
2:15 AM 26.6 °F 16.2 °F 17.6 °F 69% 30.00 in 10.0 mi NNW 11.5 mph - N/A   Overcast
2:35 AM 26.6 °F 16.8 °F 17.6 °F 69% 30.01 in 9.0 mi NNW 10.4 mph - N/A   Overcast
2:55 AM 26.6 °F 17.5 °F 17.6 °F 69% 30.01 in 9.0 mi NNW 9.2 mph 16.1 mph N/A   Overcast
3:15 AM 24.8 °F 12.4 °F 17.6 °F 74% 30.01 in 9.0 mi NNW 15.0 mph - N/A   Overcast
3:35 AM 24.8 °F 13.4 °F 17.6 °F 74% 30.02 in 9.0 mi NNW 12.7 mph - N/A   Overcast
3:55 AM 24.8 °F 12.9 °F 17.6 °F 74% 30.01 in 10.0 mi North 13.8 mph 19.6 mph N/A   Overcast
4:15 AM 24.8 °F 12.4 °F 17.6 °F 74% 30.00 in 10.0 mi North 15.0 mph - N/A   Overcast
4:35 AM 24.8 °F 13.4 °F 17.6 °F 74% 30.00 in 10.0 mi North 12.7 mph 18.4 mph N/A   Overcast
4:55 AM 24.8 °F 13.4 °F 17.6 °F 74% 30.00 in 10.0 mi North 12.7 mph - N/A   Overcast
5:15 AM 24.8 °F 14.6 °F 17.6 °F 74% 30.01 in 10.0 mi North 10.4 mph - N/A   Overcast
5:35 AM 24.8 °F 13.4 °F 17.6 °F 74% 30.01 in 10.0 mi North 12.7 mph - N/A   Overcast
5:55 AM 24.8 °F 11.5 °F 15.8 °F 69% 30.00 in 10.0 mi North 17.3 mph - N/A   Overcast
6:15 AM 24.8 °F 12.4 °F 15.8 °F 69% 30.00 in 10.0 mi North 15.0 mph 18.4 mph N/A   Overcast
6:35 AM 24.8 °F 12.4 °F 15.8 °F 69% 30.01 in 10.0 mi North 15.0 mph - N/A   Overcast
6:55 AM 23.0 °F 13.1 °F 15.8 °F 74% 30.02 in 10.0 mi NNW 9.2 mph - N/A   Overcast
7:15 AM 23.0 °F 11.7 °F 15.8 °F 74% 30.03 in 10.0 mi NNW 11.5 mph - N/A   Overcast
7:35 AM 23.0 °F 11.7 °F 14.0 °F 68% 30.03 in 10.0 mi NNW 11.5 mph - N/A   Overcast
7:55 AM 23.0 °F 11.1 °F 12.2 °F 63% 30.04 in 10.0 mi NNW 12.7 mph 17.3 mph N/A   Overcast
8:15 AM 23.0 °F 11.7 °F 12.2 °F 63% 30.05 in 9.0 mi NNW 11.5 mph - N/A   Overcast
8:35 AM 21.2 °F 8.9 °F 12.2 °F 68% 30.06 in 9.0 mi NNW 12.7 mph 16.1 mph N/A   Overcast
8:55 AM 21.2 °F 10.1 °F 12.2 °F 68% 30.07 in 9.0 mi NNW 10.4 mph - N/A   Overcast
9:15 AM 21.2 °F 8.9 °F 12.2 °F 68% 30.08 in 8.0 mi North 12.7 mph - N/A   Mostly Cloudy
9:55 AM 23.0 °F 10.6 °F 10.4 °F 59% 30.09 in 10.0 mi NNW 13.8 mph 17.3 mph N/A   Mostly Cloudy
10:15 AM 23.0 °F 10.6 °F 10.4 °F 59% 30.10 in 10.0 mi NNW 13.8 mph - N/A   Scattered Clouds
10:35 AM 24.8 °F 11.9 °F 10.4 °F 54% 30.10 in 10.0 mi NNW 16.1 mph - N/A   Mostly Cloudy
10:55 AM 24.8 °F 12.9 °F 10.4 °F 54% 30.11 in 10.0 mi NNW 13.8 mph 18.4 mph N/A   Scattered Clouds
11:15 AM 26.6 °F 15.2 °F 10.4 °F 51% 30.10 in 10.0 mi NNW 13.8 mph - N/A   Clear
11:35 AM 28.4 °F 16.2 °F 8.6 °F 43% 30.10 in 10.0 mi North 17.3 mph 23.0 mph N/A   Clear
11:55 AM 26.6 °F 13.4 °F 8.6 °F 47% 30.09 in 10.0 mi NNW 18.4 mph 23.0 mph N/A   Clear
12:15 PM 28.4 °F 15.4 °F 8.6 °F 43% 30.09 in 10.0 mi NNW 19.6 mph 24.2 mph N/A   Clear
12:55 PM 28.4 °F 16.6 °F 8.6 °F 43% 30.06 in 10.0 mi NNW 16.1 mph 25.3 mph N/A   Clear
1:15 PM 28.4 °F 16.6 °F 8.6 °F 43% 30.05 in 10.0 mi NW 16.1 mph 24.2 mph N/A   Clear
1:35 PM 30.2 °F 18.5 °F 8.6 °F 40% 30.05 in 10.0 mi NNW 17.3 mph 23.0 mph N/A   Clear
1:55 PM 32.0 °F 20.5 °F 8.6 °F 38% 30.05 in 10.0 mi NNW 18.4 mph 23.0 mph N/A   Clear
2:15 PM 32.0 °F 20.8 °F 8.6 °F 38% 30.04 in 10.0 mi NW 17.3 mph 25.3 mph N/A   Clear
2:35 PM 32.0 °F 20.8 °F 8.6 °F 38% 30.04 in 10.0 mi NW 17.3 mph 23.0 mph N/A   Clear
2:55 PM 32.0 °F 22.1 °F 8.6 °F 38% 30.04 in 10.0 mi NNW 13.8 mph 24.2 mph N/A   Clear
3:15 PM 32.0 °F 22.1 °F 8.6 °F 38% 30.05 in 10.0 mi NNW 13.8 mph 21.9 mph N/A   Clear
3:35 PM 32.0 °F 21.2 °F 8.6 °F 38% 30.05 in 10.0 mi North 16.1 mph 20.7 mph N/A   Clear
3:55 PM 32.0 °F 22.1 °F 8.6 °F 38% 30.05 in 10.0 mi NNW 13.8 mph 20.7 mph N/A   Clear
4:15 PM 32.0 °F 21.2 °F 8.6 °F 38% 30.05 in 10.0 mi NNW 16.1 mph 23.0 mph N/A   Clear
4:35 PM 32.0 °F 22.5 °F 8.6 °F 38% 30.06 in 10.0 mi NNW 12.7 mph 23.0 mph N/A   Clear
4:55 PM 30.2 °F 20.8 °F 8.6 °F 40% 30.06 in 10.0 mi NNW 11.5 mph 17.3 mph N/A   Clear
5:15 PM 28.4 °F 18.0 °F 8.6 °F 43% 30.07 in 10.0 mi NNW 12.7 mph - N/A   Clear
5:35 PM 26.6 °F 16.8 °F 8.6 °F 47% 30.08 in 10.0 mi NNW 10.4 mph - N/A   Clear
5:55 PM 26.6 °F 18.2 °F 8.6 °F 47% 30.09 in 10.0 mi NW 8.1 mph - N/A   Clear
6:15 PM 23.0 °F 13.9 °F 8.6 °F 54% 30.11 in 10.0 mi NW 8.1 mph - N/A   Partly Cloudy
6:35 PM 23.0 °F 14.7 °F 8.6 °F 54% 30.11 in 10.0 mi NW 6.9 mph - N/A   Scattered Clouds
6:55 PM 23.0 °F 14.7 °F 8.6 °F 54% 30.12 in 10.0 mi NW 6.9 mph - N/A   Scattered Clouds
7:15 PM 23.0 °F 13.1 °F 8.6 °F 54% 30.13 in 10.0 mi NW 9.2 mph - N/A   Partly Cloudy
7:35 PM 23.0 °F 14.7 °F 8.6 °F 54% 30.13 in 10.0 mi NNW 6.9 mph - N/A   Partly Cloudy
7:55 PM 21.2 °F 12.6 °F 8.6 °F 58% 30.14 in 10.0 mi NNW 6.9 mph - N/A   Partly Cloudy
8:15 PM 19.4 °F 11.5 °F 8.6 °F 63% 30.15 in 10.0 mi NW 5.8 mph - N/A   Partly Cloudy
8:35 PM 17.6 °F 8.2 °F 8.6 °F 68% 30.15 in 10.0 mi NW 6.9 mph - N/A   Partly Cloudy
8:55 PM 17.6 °F 8.2 °F 8.6 °F 68% 30.15 in 10.0 mi NNW 6.9 mph - N/A   Clear
9:15 PM 17.6 °F 8.2 °F 8.6 °F 68% 30.15 in 10.0 mi NNW 6.9 mph - N/A   Clear
9:35 PM 17.6 °F 8.2 °F 8.6 °F 68% 30.15 in 10.0 mi NNW 6.9 mph - N/A   Clear
9:55 PM 17.6 °F 8.2 °F 8.6 °F 68% 30.16 in 10.0 mi NNW 6.9 mph - N/A   Clear
10:15 PM 17.6 °F 8.2 °F 8.6 °F 68% 30.17 in 10.0 mi NW 6.9 mph - N/A   Clear
10:35 PM 14.0 °F 5.1 °F 6.8 °F 73% 30.18 in 10.0 mi WNW 5.8 mph - N/A   Clear
10:55 PM 14.0 °F 2.9 °F 6.8 °F 73% 30.19 in 10.0 mi WNW 8.1 mph - N/A   Clear
11:15 PM 14.0 °F 2.9 °F 6.8 °F 73% 30.19 in 10.0 mi WNW 8.1 mph - N/A   Clear
11:35 PM 14.0 °F 2.9 °F 6.8 °F 73% 30.19 in 10.0 mi NW 8.1 mph - N/A   Clear
11:55 PM 14.0 °F 3.9 °F 6.8 °F 73% 30.20 in 10.0 mi NW 6.9 mph - N/A   Clear